createdAt,value
2022-11-03T00:02:35.454Z,10.91
2022-11-03T00:05:57.551Z,10.80
2022-11-03T00:09:05.828Z,10.65
2022-11-03T00:12:11.991Z,10.53
2022-11-03T00:15:16.555Z,10.47
2022-11-03T00:18:22.795Z,10.41
2022-11-03T00:21:27.349Z,10.29
2022-11-03T00:24:33.484Z,10.16
2022-11-03T00:27:37.950Z,10.03
2022-11-03T00:30:44.198Z,9.95
2022-11-03T00:33:49.044Z,9.87
2022-11-03T00:36:55.270Z,9.77
2022-11-03T00:39:59.923Z,9.70
2022-11-03T00:43:06.500Z,9.66
2022-11-03T00:46:13.452Z,9.61
2022-11-03T00:49:19.500Z,9.53
2022-11-03T00:52:25.677Z,9.45
2022-11-03T00:55:30.141Z,9.42
2022-11-03T00:58:36.600Z,9.38
2022-11-03T01:01:47.162Z,9.32
2022-11-03T01:05:11.252Z,9.26
2022-11-03T01:08:17.396Z,9.23
2022-11-03T01:11:40.272Z,9.23
2022-11-03T01:14:48.457Z,9.21
2022-11-03T01:17:54.532Z,9.20
2022-11-03T01:21:00.977Z,9.22
2022-11-03T01:24:07.796Z,9.23
2022-11-03T01:27:15.821Z,9.20
2022-11-03T01:30:21.935Z,9.19
2022-11-03T01:33:28.009Z,9.17
2022-11-03T01:36:34.239Z,9.16
2022-11-03T01:39:38.743Z,9.15
2022-11-03T01:42:44.879Z,9.15
2022-11-03T01:45:54.527Z,9.11
2022-11-03T01:49:04.208Z,9.02
2022-11-03T01:52:15.258Z,8.93
2022-11-03T01:55:24.698Z,8.83
2022-11-03T01:58:34.844Z,8.79
2022-11-03T02:01:41.317Z,8.75
2022-11-03T02:04:48.451Z,8.69
2022-11-03T02:08:00.209Z,8.62
2022-11-03T02:11:27.047Z,8.48
2022-11-03T02:14:33.173Z,8.37
2022-11-03T02:17:41.212Z,8.29
2022-11-03T02:20:50.158Z,8.24
2022-11-03T02:24:04.219Z,8.19
2022-11-03T02:27:10.688Z,8.08
2022-11-03T02:30:16.885Z,7.97
2022-11-03T02:33:32.006Z,7.87
2022-11-03T02:36:43.494Z,7.76
2022-11-03T02:39:54.062Z,7.67
2022-11-03T02:43:02.473Z,7.59
2022-11-03T02:46:09.754Z,7.52
2022-11-03T02:49:15.801Z,7.47
2022-11-03T02:52:40.840Z,7.45
2022-11-03T02:55:55.396Z,7.38
2022-11-03T02:59:06.298Z,7.28
2022-11-03T03:02:29.077Z,7.22
2022-11-03T03:05:37.813Z,7.15
2022-11-03T03:08:49.653Z,7.10
2022-11-03T03:11:57.756Z,7.08
2022-11-03T03:15:07.318Z,7.01
2022-11-03T03:18:22.063Z,6.91
2022-11-03T03:21:33.949Z,6.81
2022-11-03T03:24:49.273Z,6.76
2022-11-03T03:28:02.275Z,6.69
2022-11-03T03:31:14.691Z,6.64
2022-11-03T03:34:34.562Z,6.61
2022-11-03T03:37:46.769Z,6.54
2022-11-03T03:40:56.947Z,6.46
2022-11-03T03:44:07.498Z,6.38
2022-11-03T03:47:19.294Z,6.33
2022-11-03T03:50:27.916Z,6.27
2022-11-03T03:53:34.159Z,6.27
2022-11-03T03:56:48.778Z,6.31
2022-11-03T03:59:55.006Z,6.31
2022-11-03T04:03:01.393Z,6.26
2022-11-03T04:06:05.898Z,6.19
2022-11-03T04:09:12.136Z,6.08
2022-11-03T04:12:35.841Z,5.98
2022-11-03T04:15:59.407Z,5.91
2022-11-03T04:19:23.084Z,5.84
2022-11-03T04:22:31.912Z,5.83
2022-11-03T04:25:38.065Z,5.79
2022-11-03T04:28:44.850Z,5.76
2022-11-03T04:31:51.062Z,5.68
2022-11-03T04:34:57.296Z,5.59
2022-11-03T04:38:10.822Z,5.47
2022-11-03T04:41:19.513Z,5.36
2022-11-03T04:44:25.778Z,5.30
2022-11-03T04:47:33.215Z,5.24
2022-11-03T04:50:42.867Z,5.20
2022-11-03T04:53:56.436Z,5.15
2022-11-03T04:57:06.357Z,5.08
2022-11-03T05:00:18.366Z,5.02
2022-11-03T05:03:26.802Z,4.98
2022-11-03T05:06:32.889Z,4.96
2022-11-03T05:09:42.719Z,4.92
2022-11-03T05:12:50.349Z,4.90
2022-11-03T05:16:01.775Z,4.86
2022-11-03T05:19:14.279Z,4.81
2022-11-03T05:22:23.625Z,4.76
2022-11-03T05:25:43.618Z,4.74
2022-11-03T05:28:52.054Z,4.75
2022-11-03T05:31:59.033Z,4.73
2022-11-03T05:35:05.586Z,4.68
2022-11-03T05:38:17.255Z,4.63
2022-11-03T05:41:27.316Z,4.60
2022-11-03T05:44:37.110Z,4.55
2022-11-03T05:47:43.753Z,4.53
2022-11-03T05:50:49.897Z,4.55
2022-11-03T05:53:59.380Z,4.54
2022-11-03T05:57:09.803Z,4.47
2022-11-03T06:00:29.235Z,4.40
2022-11-03T06:03:38.905Z,4.35
2022-11-03T06:06:48.369Z,4.32
2022-11-03T06:09:55.174Z,4.30
2022-11-03T06:13:07.526Z,4.28
2022-11-03T06:16:33.498Z,4.28
2022-11-03T06:19:41.624Z,4.27
2022-11-03T06:22:48.664Z,4.25
2022-11-03T06:25:56.905Z,4.23
2022-11-03T06:29:03.154Z,4.22
2022-11-03T06:32:13.982Z,4.23
2022-11-03T06:35:21.215Z,4.24
2022-11-03T06:38:30.872Z,4.23
2022-11-03T06:41:39.991Z,4.24
2022-11-03T06:44:48.798Z,4.25
2022-11-03T06:47:55.691Z,4.25
2022-11-03T06:51:02.243Z,4.27
2022-11-03T06:54:12.946Z,4.31
2022-11-03T06:57:20.190Z,4.32
2022-11-03T07:00:37.762Z,4.33
2022-11-03T07:03:46.696Z,4.36
2022-11-03T07:06:53.842Z,4.40
2022-11-03T07:10:00.130Z,4.45
2022-11-03T07:13:15.015Z,4.50
2022-11-03T07:16:25.788Z,4.55
2022-11-03T07:19:36.142Z,4.61
2022-11-03T07:22:42.222Z,4.69
2022-11-03T07:25:51.140Z,4.75
2022-11-03T07:28:58.125Z,4.81
2022-11-03T07:32:11.566Z,4.89
2022-11-03T07:35:46.907Z,4.98
2022-11-03T07:39:01.280Z,5.08
2022-11-03T07:42:16.753Z,5.17
2022-11-03T07:45:41.176Z,5.24
2022-11-03T07:48:49.402Z,5.32
2022-11-03T07:51:56.647Z,5.39
2022-11-03T07:55:02.781Z,5.48
2022-11-03T07:58:22.501Z,5.54
2022-11-03T08:01:34.200Z,5.62
2022-11-03T08:04:40.620Z,5.71
2022-11-03T08:07:46.999Z,5.79
2022-11-03T08:10:51.462Z,5.88
2022-11-03T08:13:58.017Z,5.98
2022-11-03T08:17:04.161Z,6.09
2022-11-03T08:20:11.713Z,6.19
2022-11-03T08:23:25.707Z,6.30
2022-11-03T08:26:32.914Z,6.42
2022-11-03T08:29:39.146Z,6.52
2022-11-03T08:32:45.511Z,6.63
2022-11-03T08:35:49.964Z,6.74
2022-11-03T08:38:56.111Z,6.85
2022-11-03T08:42:02.364Z,6.98
2022-11-03T08:45:07.836Z,7.14
2022-11-03T08:48:14.204Z,7.26
2022-11-03T08:51:18.745Z,7.39
2022-11-03T08:54:25.098Z,7.49
2022-11-03T08:57:29.561Z,7.63
2022-11-03T09:00:40.742Z,7.75
2022-11-03T09:03:47.509Z,7.88
2022-11-03T09:06:52.112Z,8.00
2022-11-03T09:13:24.299Z,8.23
2022-11-03T09:16:30.492Z,8.41
2022-11-03T09:19:36.609Z,8.61
2022-11-03T09:22:42.762Z,8.84
2022-11-03T09:25:48.837Z,9.04
2022-11-03T09:28:54.971Z,9.25
2022-11-03T09:32:01.079Z,9.38
2022-11-03T09:35:09.091Z,9.48
2022-11-03T09:38:15.230Z,9.55
2022-11-03T09:41:27.688Z,9.64
2022-11-03T09:44:50.602Z,9.81
2022-11-03T09:47:57.554Z,9.98
2022-11-03T09:51:03.998Z,10.10
2022-11-03T09:54:13.325Z,10.24
2022-11-03T09:57:20.113Z,10.35
2022-11-03T10:00:27.495Z,10.49
2022-11-03T10:03:33.965Z,10.60
2022-11-03T10:06:40.293Z,10.66
2022-11-03T10:09:49.967Z,10.73
2022-11-03T10:12:56.514Z,10.87
2022-11-03T10:16:05.334Z,10.96
2022-11-03T10:19:15.305Z,11.04
2022-11-03T10:22:22.450Z,11.12
2022-11-03T10:25:40.163Z,11.21
2022-11-03T10:29:00.802Z,11.28
2022-11-03T10:32:27.090Z,11.32
2022-11-03T10:35:37.441Z,11.38
2022-11-03T10:38:44.436Z,11.48
2022-11-03T10:41:59.413Z,11.60
2022-11-03T10:45:18.227Z,11.67
2022-11-03T10:48:26.446Z,11.75
2022-11-03T10:51:32.738Z,11.82
2022-11-03T10:54:39.682Z,11.93
2022-11-03T10:57:50.539Z,12.04
2022-11-03T11:00:59.260Z,12.17
2022-11-03T11:04:05.863Z,12.29
2022-11-03T11:07:25.089Z,12.40
2022-11-03T11:10:32.717Z,12.54
2022-11-03T11:13:38.764Z,12.65
2022-11-03T11:16:56.002Z,12.73
2022-11-03T11:20:35.688Z,12.81
2022-11-03T11:23:49.597Z,12.90
2022-11-03T11:26:55.868Z,12.99
2022-11-03T11:30:02.256Z,13.08
2022-11-03T11:33:23.691Z,13.16
2022-11-03T11:36:29.918Z,13.24
2022-11-03T11:39:49.462Z,13.32
2022-11-03T11:43:28.903Z,13.40
2022-11-03T11:46:42.515Z,13.49
2022-11-03T11:49:48.722Z,13.55
2022-11-03T11:52:59.825Z,13.61
2022-11-03T11:56:06.607Z,13.67
2022-11-03T11:59:24.616Z,13.72
2022-11-03T12:02:32.792Z,13.77
2022-11-03T12:05:39.145Z,13.82
2022-11-03T12:08:46.246Z,13.85
2022-11-03T12:11:55.613Z,13.88
2022-11-03T12:15:02.735Z,13.91
2022-11-03T12:18:36.424Z,13.94
2022-11-03T12:21:55.850Z,14.00
2022-11-03T12:25:04.238Z,14.03
2022-11-03T12:28:10.609Z,14.06
2022-11-03T12:31:16.788Z,14.11
2022-11-03T12:34:21.242Z,14.13
2022-11-03T12:37:27.458Z,14.12
2022-11-03T12:40:33.531Z,14.12
2022-11-03T12:43:37.995Z,14.11
2022-11-03T12:46:44.110Z,14.12
2022-11-03T12:49:48.665Z,14.15
2022-11-03T12:52:54.803Z,14.18
2022-11-03T12:55:59.304Z,14.21
2022-11-03T12:59:05.419Z,14.25
2022-11-03T13:02:11.397Z,14.28
2022-11-03T13:05:17.909Z,14.30
2022-11-03T13:08:24.739Z,14.31
2022-11-03T13:11:48.607Z,14.33
2022-11-03T13:15:12.589Z,14.35
2022-11-03T13:18:19.168Z,14.34
2022-11-03T13:21:25.196Z,14.33
2022-11-03T13:24:29.749Z,14.31
2022-11-03T13:27:35.980Z,14.26
2022-11-03T13:30:42.079Z,14.22
2022-11-03T13:33:46.628Z,14.19
2022-11-03T13:36:52.742Z,14.18
2022-11-03T13:39:57.208Z,14.14
2022-11-03T13:43:03.398Z,14.11
2022-11-03T13:46:09.699Z,14.07
2022-11-03T13:49:59.471Z,14.03
2022-11-03T13:52:42.344Z,14.02
2022-11-03T13:55:48.809Z,13.99
2022-11-03T14:05:47.778Z,13.92
2022-11-03T14:08:54.123Z,13.88
2022-11-03T14:12:18.189Z,13.82
2022-11-03T14:15:24.347Z,13.75
2022-11-03T14:18:30.477Z,13.67
2022-11-03T14:21:37.945Z,13.62
2022-11-03T14:24:44.552Z,13.55
2022-11-03T14:27:50.865Z,13.47
2022-11-03T14:30:59.987Z,13.39
2022-11-03T14:34:06.254Z,13.30
2022-11-03T14:37:13.488Z,13.21
2022-11-03T14:40:33.631Z,13.10
2022-11-03T14:43:39.880Z,12.98
2022-11-03T14:46:45.887Z,12.87
2022-11-03T14:49:52.549Z,12.74
2022-11-03T14:52:59.975Z,12.61
2022-11-03T14:56:06.608Z,12.49
2022-11-03T14:59:12.729Z,12.36
2022-11-03T15:02:17.402Z,12.21
2022-11-03T15:05:46.701Z,12.07
2022-11-03T15:08:56.358Z,11.92
2022-11-03T15:12:02.897Z,11.77
2022-11-03T15:15:09.083Z,11.63
2022-11-03T15:18:15.326Z,11.48
2022-11-03T15:21:21.411Z,11.36
2022-11-03T15:27:53.706Z,11.11
2022-11-03T15:30:58.141Z,10.99
2022-11-03T15:34:07.676Z,10.86
2022-11-03T15:37:15.758Z,10.75
2022-11-03T15:40:21.809Z,10.67
2022-11-03T15:43:27.854Z,10.58
2022-11-03T15:46:35.876Z,10.48
2022-11-03T15:49:42.070Z,10.40
2022-11-03T15:52:48.113Z,10.31
2022-11-03T15:55:54.267Z,10.19
2022-11-03T15:58:58.762Z,10.08
2022-11-03T16:02:20.151Z,9.97
2022-11-03T16:05:30.990Z,9.87
2022-11-03T16:08:35.546Z,9.80
2022-11-03T16:11:41.755Z,9.74
2022-11-03T16:14:46.260Z,9.68
2022-11-03T16:17:52.353Z,9.61
2022-11-03T16:20:58.365Z,9.53
2022-11-03T16:24:04.524Z,9.44
2022-11-03T16:27:09.839Z,9.38
2022-11-03T16:30:16.799Z,9.29
2022-11-03T16:33:23.013Z,9.09
2022-11-03T16:36:27.641Z,8.92
2022-11-03T16:39:34.101Z,8.85
2022-11-03T16:42:40.134Z,8.76
2022-11-03T16:45:46.214Z,8.67
2022-11-03T16:48:52.287Z,8.60
2022-11-03T16:51:58.787Z,8.53
2022-11-03T16:55:05.373Z,8.40
2022-11-03T16:58:11.468Z,8.30
2022-11-03T17:01:17.604Z,8.24
2022-11-03T17:04:24.270Z,8.13
2022-11-03T17:07:30.438Z,8.01
2022-11-03T17:10:35.869Z,7.89
2022-11-03T17:13:42.231Z,7.78
2022-11-03T17:16:47.336Z,7.69
2022-11-03T17:19:53.401Z,7.65
2022-11-03T17:22:59.526Z,7.62
2022-11-03T17:26:06.473Z,7.58
2022-11-03T17:29:16.624Z,7.52
2022-11-03T17:32:26.706Z,7.42
2022-11-03T17:35:39.509Z,7.35
2022-11-03T17:38:46.049Z,7.30
2022-11-03T17:41:52.208Z,7.29
2022-11-03T17:44:59.499Z,7.30
2022-11-03T17:48:06.234Z,7.24
2022-11-03T17:51:13.834Z,7.16
2022-11-03T17:54:20.171Z,7.09
2022-11-03T17:57:24.809Z,7.03
2022-11-03T18:00:31.270Z,6.98
2022-11-03T18:03:37.894Z,6.93
2022-11-03T18:06:45.646Z,6.93
2022-11-03T18:09:51.806Z,6.92
2022-11-03T18:13:19.888Z,6.87
2022-11-03T18:16:26.256Z,6.83
2022-11-03T18:19:33.446Z,6.78
2022-11-03T18:22:39.635Z,6.72
2022-11-03T18:25:46.196Z,6.67
2022-11-03T18:28:53.116Z,6.64
2022-11-03T18:32:01.186Z,6.59
2022-11-03T18:35:15.527Z,6.54
2022-11-03T18:38:23.353Z,6.46
2022-11-03T18:41:39.732Z,6.46
2022-11-03T18:44:46.821Z,6.45
2022-11-03T18:47:54.237Z,6.44
2022-11-03T18:51:00.336Z,6.47
2022-11-03T18:54:07.162Z,6.49
2022-11-03T18:57:14.553Z,6.50
2022-11-03T19:00:23.589Z,6.51
2022-11-03T19:03:30.490Z,6.51
2022-11-03T19:06:37.593Z,6.51
2022-11-03T19:09:44.982Z,6.51
2022-11-03T19:12:51.202Z,6.50
2022-11-03T19:15:58.209Z,6.48
2022-11-03T19:19:04.234Z,6.48
2022-11-03T19:22:14.398Z,6.44
2022-11-03T19:25:20.681Z,6.33
2022-11-03T19:28:25.860Z,6.34
2022-11-03T19:31:35.777Z,6.40
2022-11-03T19:34:43.414Z,6.44
2022-11-03T19:37:51.165Z,6.45
2022-11-03T19:41:15.041Z,6.46
2022-11-03T19:44:21.101Z,6.43
2022-11-03T19:48:10.504Z,6.45
2022-11-03T19:51:15.579Z,6.48
2022-11-03T19:54:24.856Z,6.49
2022-11-03T19:57:31.100Z,6.46
2022-11-03T20:00:37.102Z,6.48
2022-11-03T20:03:43.347Z,6.53
2022-11-03T20:06:49.825Z,6.58
2022-11-03T20:09:56.120Z,6.60
2022-11-03T20:13:00.917Z,6.58
2022-11-03T20:16:11.833Z,6.56
2022-11-03T20:19:17.920Z,6.58
2022-11-03T20:22:29.024Z,6.60
2022-11-03T20:25:37.246Z,6.61
2022-11-03T20:28:43.741Z,6.65
2022-11-03T20:31:49.952Z,6.67
2022-11-03T20:34:56.841Z,6.66
2022-11-03T20:38:03.133Z,6.70
2022-11-03T20:41:16.435Z,6.76
2022-11-03T20:44:23.965Z,6.76
2022-11-03T20:47:32.784Z,6.77
2022-11-03T20:50:39.516Z,6.80
2022-11-03T20:53:46.341Z,6.81
2022-11-03T20:56:52.421Z,6.79
2022-11-03T20:59:58.577Z,6.76
2022-11-03T21:03:21.078Z,6.75
2022-11-03T21:06:37.625Z,6.79
2022-11-03T21:09:44.220Z,6.83
2022-11-03T21:12:50.994Z,6.87
2022-11-03T21:16:24.133Z,6.91
2022-11-03T21:19:55.841Z,6.96
2022-11-03T21:23:01.974Z,7.00
2022-11-03T21:26:10.529Z,7.04
2022-11-03T21:29:27.513Z,7.08
2022-11-03T21:32:39.303Z,7.12
2022-11-03T21:35:46.826Z,7.17
2022-11-03T21:38:52.960Z,7.21
2022-11-03T21:42:17.789Z,7.24
2022-11-03T21:45:24.163Z,7.21
2022-11-03T21:48:46.194Z,7.20
2022-11-03T21:51:52.325Z,7.22
2022-11-03T21:54:58.634Z,7.25
2022-11-03T21:58:04.498Z,7.32
2022-11-03T22:01:11.244Z,7.36
2022-11-03T22:04:17.394Z,7.40
2022-11-03T22:07:24.046Z,7.45
2022-11-03T22:10:30.209Z,7.46
2022-11-03T22:13:36.298Z,7.45
2022-11-03T22:16:42.804Z,7.45
2022-11-03T22:20:06.777Z,7.48
2022-11-03T22:23:32.781Z,7.51
2022-11-03T22:27:00.069Z,7.54
2022-11-03T22:30:25.581Z,7.57
2022-11-03T22:33:51.816Z,7.57
2022-11-03T22:36:57.881Z,7.61
2022-11-03T22:40:21.758Z,7.65
2022-11-03T22:43:46.147Z,7.68
2022-11-03T22:46:52.173Z,7.72
2022-11-03T22:49:58.229Z,7.75
2022-11-03T22:53:24.403Z,7.78
2022-11-03T22:56:31.529Z,7.77
2022-11-03T22:59:37.597Z,7.75
2022-11-03T23:02:44.324Z,7.75
2022-11-03T23:05:50.491Z,7.75
2022-11-03T23:08:57.727Z,7.77
2022-11-03T23:12:03.929Z,7.79
2022-11-03T23:15:29.364Z,7.83
2022-11-03T23:18:53.035Z,7.86
2022-11-03T23:21:59.510Z,7.86
2022-11-03T23:25:05.993Z,7.84
2022-11-03T23:28:12.105Z,7.77
2022-11-03T23:31:18.508Z,7.73
2022-11-03T23:34:24.880Z,7.74
2022-11-03T23:37:29.506Z,7.75
2022-11-03T23:40:36.305Z,7.74
2022-11-03T23:43:43.133Z,7.75
2022-11-03T23:47:06.636Z,7.77
2022-11-03T23:50:13.025Z,7.79
2022-11-03T23:53:17.541Z,7.78
2022-11-03T23:56:42.945Z,7.78
2022-11-03T23:59:49.163Z,7.77
